sensor_id;sensor_type;location;lat;lon;timestamp;P1;durP1;ratioP1;P2;durP2;ratioP2
40541;SDS011;49288;52.194;5.676;2023-05-16T00:00:45;17.80;;;4.03;;
40541;SDS011;49288;52.194;5.676;2023-05-16T00:05:49;15.15;;;4.05;;
40541;SDS011;49288;52.194;5.676;2023-05-16T00:10:51;11.65;;;3.30;;
40541;SDS011;49288;52.194;5.676;2023-05-16T00:15:54;10.93;;;3.78;;
40541;SDS011;49288;52.194;5.676;2023-05-16T00:20:57;15.55;;;3.10;;
40541;SDS011;49288;52.194;5.676;2023-05-16T00:26:00;10.80;;;3.00;;
40541;SDS011;49288;52.194;5.676;2023-05-16T00:31:05;8.25;;;2.67;;
40541;SDS011;49288;52.194;5.676;2023-05-16T00:36:08;14.40;;;3.15;;
40541;SDS011;49288;52.194;5.676;2023-05-16T00:41:11;8.07;;;3.10;;
40541;SDS011;49288;52.194;5.676;2023-05-16T00:46:13;15.93;;;2.97;;
40541;SDS011;49288;52.194;5.676;2023-05-16T00:51:16;15.30;;;3.35;;
40541;SDS011;49288;52.194;5.676;2023-05-16T00:56:19;13.80;;;2.70;;
40541;SDS011;49288;52.194;5.676;2023-05-16T01:01:22;7.00;;;2.47;;
40541;SDS011;49288;52.194;5.676;2023-05-16T01:06:28;10.88;;;2.60;;
40541;SDS011;49288;52.194;5.676;2023-05-16T01:11:42;10.85;;;2.53;;
40541;SDS011;49288;52.194;5.676;2023-05-16T01:27:33;10.45;;;2.25;;
40541;SDS011;49288;52.194;5.676;2023-05-16T01:32:39;7.30;;;2.50;;
40541;SDS011;49288;52.194;5.676;2023-05-16T01:37:50;8.38;;;2.60;;
40541;SDS011;49288;52.194;5.676;2023-05-16T01:42:57;12.40;;;2.97;;
40541;SDS011;49288;52.194;5.676;2023-05-16T01:48:06;9.90;;;2.40;;
40541;SDS011;49288;52.194;5.676;2023-05-16T01:53:14;10.98;;;2.50;;
40541;SDS011;49288;52.194;5.676;2023-05-16T01:58:19;10.88;;;2.50;;
40541;SDS011;49288;52.194;5.676;2023-05-16T02:03:23;7.07;;;2.22;;
40541;SDS011;49288;52.194;5.676;2023-05-16T02:08:26;10.68;;;2.72;;
40541;SDS011;49288;52.194;5.676;2023-05-16T02:13:30;13.50;;;2.40;;
40541;SDS011;49288;52.194;5.676;2023-05-16T02:18:37;8.45;;;2.20;;
40541;SDS011;49288;52.194;5.676;2023-05-16T02:23:40;9.70;;;2.40;;
40541;SDS011;49288;52.194;5.676;2023-05-16T02:28:43;11.23;;;2.55;;
40541;SDS011;49288;52.194;5.676;2023-05-16T02:33:50;12.80;;;2.88;;
40541;SDS011;49288;52.194;5.676;2023-05-16T02:38:53;16.33;;;2.72;;
40541;SDS011;49288;52.194;5.676;2023-05-16T02:43:56;12.05;;;2.80;;
40541;SDS011;49288;52.194;5.676;2023-05-16T02:49:00;13.77;;;2.65;;
40541;SDS011;49288;52.194;5.676;2023-05-16T02:54:03;7.95;;;2.33;;
40541;SDS011;49288;52.194;5.676;2023-05-16T02:59:06;13.55;;;2.72;;
40541;SDS011;49288;52.194;5.676;2023-05-16T03:04:10;9.83;;;2.40;;
40541;SDS011;49288;52.194;5.676;2023-05-16T03:09:13;10.50;;;2.38;;
40541;SDS011;49288;52.194;5.676;2023-05-16T03:14:17;7.75;;;2.65;;
40541;SDS011;49288;52.194;5.676;2023-05-16T03:19:20;11.63;;;2.83;;
40541;SDS011;49288;52.194;5.676;2023-05-16T03:24:23;8.90;;;2.33;;
40541;SDS011;49288;52.194;5.676;2023-05-16T03:29:27;4.82;;;1.98;;
40541;SDS011;49288;52.194;5.676;2023-05-16T03:34:30;12.00;;;3.22;;
40541;SDS011;49288;52.194;5.676;2023-05-16T03:39:33;9.57;;;2.78;;
40541;SDS011;49288;52.194;5.676;2023-05-16T03:44:35;17.52;;;3.17;;
40541;SDS011;49288;52.194;5.676;2023-05-16T03:49:38;11.65;;;2.35;;
40541;SDS011;49288;52.194;5.676;2023-05-16T03:54:41;8.90;;;2.30;;
40541;SDS011;49288;52.194;5.676;2023-05-16T03:59:46;7.50;;;2.28;;
40541;SDS011;49288;52.194;5.676;2023-05-16T04:04:48;10.85;;;2.28;;
40541;SDS011;49288;52.194;5.676;2023-05-16T04:10:10;8.30;;;2.65;;
40541;SDS011;49288;52.194;5.676;2023-05-16T04:15:13;10.43;;;2.33;;
40541;SDS011;49288;52.194;5.676;2023-05-16T04:20:15;12.55;;;2.47;;
40541;SDS011;49288;52.194;5.676;2023-05-16T04:25:20;8.98;;;2.60;;
40541;SDS011;49288;52.194;5.676;2023-05-16T04:30:23;8.00;;;2.47;;
40541;SDS011;49288;52.194;5.676;2023-05-16T04:35:27;6.68;;;2.10;;
40541;SDS011;49288;52.194;5.676;2023-05-16T04:40:30;9.73;;;2.30;;
40541;SDS011;49288;52.194;5.676;2023-05-16T04:45:33;16.45;;;3.10;;
40541;SDS011;49288;52.194;5.676;2023-05-16T04:50:57;12.93;;;2.95;;
40541;SDS011;49288;52.194;5.676;2023-05-16T04:56:00;13.65;;;2.25;;
40541;SDS011;49288;52.194;5.676;2023-05-16T05:01:02;13.30;;;2.88;;
40541;SDS011;49288;52.194;5.676;2023-05-16T05:06:05;7.32;;;2.28;;
40541;SDS011;49288;52.194;5.676;2023-05-16T05:11:09;9.93;;;2.90;;
40541;SDS011;49288;52.194;5.676;2023-05-16T05:16:13;14.32;;;3.00;;
40541;SDS011;49288;52.194;5.676;2023-05-16T05:21:15;22.40;;;3.50;;
40541;SDS011;49288;52.194;5.676;2023-05-16T05:26:19;8.63;;;3.13;;
40541;SDS011;49288;52.194;5.676;2023-05-16T05:31:23;15.73;;;3.83;;
40541;SDS011;49288;52.194;5.676;2023-05-16T05:36:25;18.42;;;3.38;;
40541;SDS011;49288;52.194;5.676;2023-05-16T05:41:28;17.73;;;4.00;;
40541;SDS011;49288;52.194;5.676;2023-05-16T05:46:50;21.17;;;3.40;;
40541;SDS011;49288;52.194;5.676;2023-05-16T05:51:53;23.30;;;3.28;;
40541;SDS011;49288;52.194;5.676;2023-05-16T05:56:56;20.85;;;3.33;;
40541;SDS011;49288;52.194;5.676;2023-05-16T06:01:59;17.60;;;3.77;;
40541;SDS011;49288;52.194;5.676;2023-05-16T06:07:02;17.83;;;3.05;;
40541;SDS011;49288;52.194;5.676;2023-05-16T06:12:05;19.05;;;2.75;;
40541;SDS011;49288;52.194;5.676;2023-05-16T06:17:08;12.50;;;2.47;;
40541;SDS011;49288;52.194;5.676;2023-05-16T06:22:11;8.25;;;1.90;;
40541;SDS011;49288;52.194;5.676;2023-05-16T06:27:14;13.93;;;2.28;;
40541;SDS011;49288;52.194;5.676;2023-05-16T06:32:16;11.68;;;2.33;;
40541;SDS011;49288;52.194;5.676;2023-05-16T06:37:19;12.18;;;2.28;;
40541;SDS011;49288;52.194;5.676;2023-05-16T06:42:22;15.60;;;2.10;;
40541;SDS011;49288;52.194;5.676;2023-05-16T06:47:24;15.50;;;2.10;;
40541;SDS011;49288;52.194;5.676;2023-05-16T06:52:27;11.65;;;2.20;;
40541;SDS011;49288;52.194;5.676;2023-05-16T06:57:30;8.38;;;1.85;;
40541;SDS011;49288;52.194;5.676;2023-05-16T07:02:33;6.00;;;1.75;;
40541;SDS011;49288;52.194;5.676;2023-05-16T07:07:35;17.63;;;2.20;;
40541;SDS011;49288;52.194;5.676;2023-05-16T07:12:40;6.67;;;1.50;;
40541;SDS011;49288;52.194;5.676;2023-05-16T07:22:46;7.85;;;1.75;;
40541;SDS011;49288;52.194;5.676;2023-05-16T07:27:49;11.68;;;2.20;;
40541;SDS011;49288;52.194;5.676;2023-05-16T07:32:53;8.75;;;1.98;;
40541;SDS011;49288;52.194;5.676;2023-05-16T07:37:59;14.48;;;2.17;;
40541;SDS011;49288;52.194;5.676;2023-05-16T07:43:02;10.32;;;2.15;;
40541;SDS011;49288;52.194;5.676;2023-05-16T07:48:05;10.25;;;1.63;;
40541;SDS011;49288;52.194;5.676;2023-05-16T07:53:08;10.30;;;2.05;;
40541;SDS011;49288;52.194;5.676;2023-05-16T07:58:11;12.45;;;2.35;;
40541;SDS011;49288;52.194;5.676;2023-05-16T08:03:14;8.38;;;2.05;;
40541;SDS011;49288;52.194;5.676;2023-05-16T08:08:17;6.05;;;1.58;;
40541;SDS011;49288;52.194;5.676;2023-05-16T08:13:20;7.07;;;2.08;;
40541;SDS011;49288;52.194;5.676;2023-05-16T08:18:23;5.38;;;1.30;;
40541;SDS011;49288;52.194;5.676;2023-05-16T08:23:26;6.75;;;1.40;;
40541;SDS011;49288;52.194;5.676;2023-05-16T08:28:28;9.88;;;2.08;;
40541;SDS011;49288;52.194;5.676;2023-05-16T08:33:32;7.70;;;1.90;;
40541;SDS011;49288;52.194;5.676;2023-05-16T08:38:35;10.25;;;1.90;;
40541;SDS011;49288;52.194;5.676;2023-05-16T08:43:38;10.23;;;1.88;;
40541;SDS011;49288;52.194;5.676;2023-05-16T08:48:41;9.95;;;1.70;;
40541;SDS011;49288;52.194;5.676;2023-05-16T08:53:49;8.52;;;1.70;;
40541;SDS011;49288;52.194;5.676;2023-05-16T08:58:55;7.35;;;1.88;;
40541;SDS011;49288;52.194;5.676;2023-05-16T09:03:59;10.32;;;2.22;;
40541;SDS011;49288;52.194;5.676;2023-05-16T09:09:02;8.77;;;2.17;;
40541;SDS011;49288;52.194;5.676;2023-05-16T09:14:08;6.03;;;1.90;;
40541;SDS011;49288;52.194;5.676;2023-05-16T09:19:11;6.57;;;2.03;;
40541;SDS011;49288;52.194;5.676;2023-05-16T09:24:15;4.88;;;1.55;;
40541;SDS011;49288;52.194;5.676;2023-05-16T09:29:18;9.18;;;1.55;;
40541;SDS011;49288;52.194;5.676;2023-05-16T09:34:21;10.43;;;2.00;;
40541;SDS011;49288;52.194;5.676;2023-05-16T09:39:25;5.50;;;1.30;;
40541;SDS011;49288;52.194;5.676;2023-05-16T09:44:29;10.57;;;1.92;;
40541;SDS011;49288;52.194;5.676;2023-05-16T09:49:32;8.50;;;1.83;;
40541;SDS011;49288;52.194;5.676;2023-05-16T09:54:39;8.13;;;1.83;;
40541;SDS011;49288;52.194;5.676;2023-05-16T09:59:42;7.82;;;1.73;;
40541;SDS011;49288;52.194;5.676;2023-05-16T10:04:46;15.05;;;2.33;;
40541;SDS011;49288;52.194;5.676;2023-05-16T10:09:49;8.00;;;2.13;;
40541;SDS011;49288;52.194;5.676;2023-05-16T10:14:53;7.55;;;1.77;;
40541;SDS011;49288;52.194;5.676;2023-05-16T10:19:57;8.27;;;1.50;;
40541;SDS011;49288;52.194;5.676;2023-05-16T10:30:14;8.07;;;2.03;;
40541;SDS011;49288;52.194;5.676;2023-05-16T10:35:18;7.60;;;1.85;;
40541;SDS011;49288;52.194;5.676;2023-05-16T10:40:22;8.80;;;2.13;;
40541;SDS011;49288;52.194;5.676;2023-05-16T10:45:26;19.00;;;2.53;;
40541;SDS011;49288;52.194;5.676;2023-05-16T10:55:35;11.00;;;2.42;;
40541;SDS011;49288;52.194;5.676;2023-05-16T11:00:38;7.13;;;2.00;;
40541;SDS011;49288;52.194;5.676;2023-05-16T11:05:43;6.35;;;1.80;;
40541;SDS011;49288;52.194;5.676;2023-05-16T11:16:40;6.43;;;2.10;;
40541;SDS011;49288;52.194;5.676;2023-05-16T11:27:12;5.85;;;1.88;;
40541;SDS011;49288;52.194;5.676;2023-05-16T11:32:23;11.80;;;2.40;;
40541;SDS011;49288;52.194;5.676;2023-05-16T11:37:26;7.87;;;1.60;;
40541;SDS011;49288;52.194;5.676;2023-05-16T11:47:53;8.25;;;1.77;;
40541;SDS011;49288;52.194;5.676;2023-05-16T11:52:56;8.55;;;1.88;;
40541;SDS011;49288;52.194;5.676;2023-05-16T11:57:59;11.40;;;2.30;;
40541;SDS011;49288;52.194;5.676;2023-05-16T12:03:21;11.03;;;1.90;;
40541;SDS011;49288;52.194;5.676;2023-05-16T12:08:27;13.10;;;2.17;;
40541;SDS011;49288;52.194;5.676;2023-05-16T12:18:33;12.50;;;1.80;;
40541;SDS011;49288;52.194;5.676;2023-05-16T12:23:42;9.75;;;1.85;;
40541;SDS011;49288;52.194;5.676;2023-05-16T12:28:44;8.68;;;1.77;;
40541;SDS011;49288;52.194;5.676;2023-05-16T12:33:47;9.93;;;2.30;;
40541;SDS011;49288;52.194;5.676;2023-05-16T12:38:58;5.03;;;1.92;;
40541;SDS011;49288;52.194;5.676;2023-05-16T12:44:10;6.20;;;2.15;;
40541;SDS011;49288;52.194;5.676;2023-05-16T12:49:14;5.18;;;1.67;;
40541;SDS011;49288;52.194;5.676;2023-05-16T12:59:21;6.85;;;2.25;;
40541;SDS011;49288;52.194;5.676;2023-05-16T13:04:26;10.35;;;2.25;;
40541;SDS011;49288;52.194;5.676;2023-05-16T13:09:29;11.70;;;3.03;;
40541;SDS011;49288;52.194;5.676;2023-05-16T13:14:34;10.02;;;2.00;;
40541;SDS011;49288;52.194;5.676;2023-05-16T13:19:37;10.10;;;2.10;;
40541;SDS011;49288;52.194;5.676;2023-05-16T13:24:39;9.18;;;2.00;;
40541;SDS011;49288;52.194;5.676;2023-05-16T13:29:42;10.57;;;2.33;;
40541;SDS011;49288;52.194;5.676;2023-05-16T13:34:46;10.03;;;2.17;;
40541;SDS011;49288;52.194;5.676;2023-05-16T13:39:49;8.48;;;2.17;;
40541;SDS011;49288;52.194;5.676;2023-05-16T13:44:52;6.10;;;1.88;;
40541;SDS011;49288;52.194;5.676;2023-05-16T13:49:55;15.95;;;2.83;;
40541;SDS011;49288;52.194;5.676;2023-05-16T13:54:58;8.97;;;2.40;;
40541;SDS011;49288;52.194;5.676;2023-05-16T14:00:01;12.55;;;2.25;;
40541;SDS011;49288;52.194;5.676;2023-05-16T14:05:12;9.35;;;2.03;;
40541;SDS011;49288;52.194;5.676;2023-05-16T14:10:15;9.20;;;2.53;;
40541;SDS011;49288;52.194;5.676;2023-05-16T14:15:17;9.68;;;2.13;;
40541;SDS011;49288;52.194;5.676;2023-05-16T14:20:20;9.90;;;2.20;;
40541;SDS011;49288;52.194;5.676;2023-05-16T14:25:24;12.15;;;2.47;;
40541;SDS011;49288;52.194;5.676;2023-05-16T14:30:30;8.35;;;2.03;;
40541;SDS011;49288;52.194;5.676;2023-05-16T14:35:32;9.20;;;2.45;;
40541;SDS011;49288;52.194;5.676;2023-05-16T14:41:01;9.85;;;2.08;;
40541;SDS011;49288;52.194;5.676;2023-05-16T14:46:04;10.10;;;2.00;;
40541;SDS011;49288;52.194;5.676;2023-05-16T14:51:10;7.38;;;2.20;;
40541;SDS011;49288;52.194;5.676;2023-05-16T14:56:13;12.57;;;2.25;;
40541;SDS011;49288;52.194;5.676;2023-05-16T15:01:16;11.13;;;2.35;;
40541;SDS011;49288;52.194;5.676;2023-05-16T15:06:19;8.05;;;2.20;;
40541;SDS011;49288;52.194;5.676;2023-05-16T15:11:21;12.43;;;2.45;;
40541;SDS011;49288;52.194;5.676;2023-05-16T15:16:24;6.78;;;1.70;;
40541;SDS011;49288;52.194;5.676;2023-05-16T15:21:27;10.77;;;2.35;;
40541;SDS011;49288;52.194;5.676;2023-05-16T15:26:30;14.00;;;2.72;;
40541;SDS011;49288;52.194;5.676;2023-05-16T15:31:33;7.53;;;1.90;;
40541;SDS011;49288;52.194;5.676;2023-05-16T15:36:36;9.88;;;1.92;;
40541;SDS011;49288;52.194;5.676;2023-05-16T15:41:41;12.68;;;2.20;;
40541;SDS011;49288;52.194;5.676;2023-05-16T15:47:04;6.63;;;1.60;;
40541;SDS011;49288;52.194;5.676;2023-05-16T15:52:11;7.25;;;1.60;;
40541;SDS011;49288;52.194;5.676;2023-05-16T15:57:14;8.93;;;1.98;;
40541;SDS011;49288;52.194;5.676;2023-05-16T16:02:20;9.18;;;1.92;;
40541;SDS011;49288;52.194;5.676;2023-05-16T16:07:23;9.00;;;1.70;;
40541;SDS011;49288;52.194;5.676;2023-05-16T16:12:58;6.15;;;1.85;;
40541;SDS011;49288;52.194;5.676;2023-05-16T16:18:04;11.63;;;2.30;;
40541;SDS011;49288;52.194;5.676;2023-05-16T16:23:07;7.37;;;2.33;;
40541;SDS011;49288;52.194;5.676;2023-05-16T16:28:10;15.40;;;2.40;;
40541;SDS011;49288;52.194;5.676;2023-05-16T16:33:14;10.20;;;2.58;;
40541;SDS011;49288;52.194;5.676;2023-05-16T16:38:17;7.63;;;2.43;;
40541;SDS011;49288;52.194;5.676;2023-05-16T16:43:20;8.70;;;2.50;;
40541;SDS011;49288;52.194;5.676;2023-05-16T16:48:22;16.58;;;2.80;;
40541;SDS011;49288;52.194;5.676;2023-05-16T16:53:30;9.63;;;2.60;;
40541;SDS011;49288;52.194;5.676;2023-05-16T16:58:34;4.83;;;2.20;;
40541;SDS011;49288;52.194;5.676;2023-05-16T17:03:37;8.80;;;2.53;;
40541;SDS011;49288;52.194;5.676;2023-05-16T17:08:39;3.72;;;2.08;;
40541;SDS011;49288;52.194;5.676;2023-05-16T17:13:49;8.93;;;2.90;;
40541;SDS011;49288;52.194;5.676;2023-05-16T17:23:56;6.65;;;2.65;;
40541;SDS011;49288;52.194;5.676;2023-05-16T17:28:59;8.95;;;2.72;;
40541;SDS011;49288;52.194;5.676;2023-05-16T17:34:02;7.05;;;2.63;;
40541;SDS011;49288;52.194;5.676;2023-05-16T17:39:05;3.92;;;2.10;;
40541;SDS011;49288;52.194;5.676;2023-05-16T17:44:11;6.63;;;2.22;;
40541;SDS011;49288;52.194;5.676;2023-05-16T17:49:14;6.22;;;2.40;;
40541;SDS011;49288;52.194;5.676;2023-05-16T17:54:17;4.93;;;2.20;;
40541;SDS011;49288;52.194;5.676;2023-05-16T17:59:23;7.90;;;2.10;;
40541;SDS011;49288;52.194;5.676;2023-05-16T18:04:29;5.20;;;2.40;;
40541;SDS011;49288;52.194;5.676;2023-05-16T18:09:32;8.07;;;2.63;;
40541;SDS011;49288;52.194;5.676;2023-05-16T18:14:35;5.53;;;2.70;;
40541;SDS011;49288;52.194;5.676;2023-05-16T18:19:38;7.07;;;2.85;;
40541;SDS011;49288;52.194;5.676;2023-05-16T18:25:11;9.90;;;3.15;;
40541;SDS011;49288;52.194;5.676;2023-05-16T18:30:14;10.77;;;3.55;;
40541;SDS011;49288;52.194;5.676;2023-05-16T18:35:17;10.35;;;4.50;;
40541;SDS011;49288;52.194;5.676;2023-05-16T18:40:20;10.32;;;4.75;;
40541;SDS011;49288;52.194;5.676;2023-05-16T18:45:24;11.77;;;4.38;;
40541;SDS011;49288;52.194;5.676;2023-05-16T18:50:27;8.80;;;4.32;;
40541;SDS011;49288;52.194;5.676;2023-05-16T18:55:30;10.65;;;3.70;;
40541;SDS011;49288;52.194;5.676;2023-05-16T19:00:33;11.68;;;3.85;;
40541;SDS011;49288;52.194;5.676;2023-05-16T19:05:40;9.32;;;3.15;;
40541;SDS011;49288;52.194;5.676;2023-05-16T19:10:43;12.60;;;4.05;;
40541;SDS011;49288;52.194;5.676;2023-05-16T19:15:46;12.68;;;3.28;;
40541;SDS011;49288;52.194;5.676;2023-05-16T19:20:49;5.88;;;3.20;;
40541;SDS011;49288;52.194;5.676;2023-05-16T19:25:53;7.40;;;3.08;;
40541;SDS011;49288;52.194;5.676;2023-05-16T19:30:59;8.90;;;3.40;;
40541;SDS011;49288;52.194;5.676;2023-05-16T19:36:05;9.80;;;3.20;;
40541;SDS011;49288;52.194;5.676;2023-05-16T19:41:08;7.03;;;3.30;;
40541;SDS011;49288;52.194;5.676;2023-05-16T19:46:11;9.15;;;2.75;;
40541;SDS011;49288;52.194;5.676;2023-05-16T19:51:15;8.10;;;2.80;;
40541;SDS011;49288;52.194;5.676;2023-05-16T19:56:30;11.45;;;3.25;;
40541;SDS011;49288;52.194;5.676;2023-05-16T20:01:33;7.80;;;2.92;;
40541;SDS011;49288;52.194;5.676;2023-05-16T20:06:37;7.50;;;3.30;;
40541;SDS011;49288;52.194;5.676;2023-05-16T20:11:40;7.50;;;3.30;;
40541;SDS011;49288;52.194;5.676;2023-05-16T20:16:43;6.35;;;3.08;;
40541;SDS011;49288;52.194;5.676;2023-05-16T20:21:45;7.20;;;2.90;;
40541;SDS011;49288;52.194;5.676;2023-05-16T20:26:49;8.25;;;3.03;;
40541;SDS011;49288;52.194;5.676;2023-05-16T20:31:52;6.50;;;3.20;;
40541;SDS011;49288;52.194;5.676;2023-05-16T20:36:54;4.50;;;2.55;;
40541;SDS011;49288;52.194;5.676;2023-05-16T20:41:57;9.73;;;3.05;;
40541;SDS011;49288;52.194;5.676;2023-05-16T20:47:00;13.32;;;3.50;;
40541;SDS011;49288;52.194;5.676;2023-05-16T20:52:06;8.30;;;3.10;;
40541;SDS011;49288;52.194;5.676;2023-05-16T20:57:09;9.57;;;3.30;;
40541;SDS011;49288;52.194;5.676;2023-05-16T21:02:12;9.45;;;3.38;;
40541;SDS011;49288;52.194;5.676;2023-05-16T21:07:14;7.35;;;3.28;;
40541;SDS011;49288;52.194;5.676;2023-05-16T21:12:18;11.47;;;3.40;;
40541;SDS011;49288;52.194;5.676;2023-05-16T21:17:21;10.93;;;4.47;;
40541;SDS011;49288;52.194;5.676;2023-05-16T21:22:25;5.50;;;2.83;;
40541;SDS011;49288;52.194;5.676;2023-05-16T21:27:28;8.13;;;3.65;;
40541;SDS011;49288;52.194;5.676;2023-05-16T21:32:30;9.77;;;3.45;;
40541;SDS011;49288;52.194;5.676;2023-05-16T21:37:33;12.05;;;3.50;;
40541;SDS011;49288;52.194;5.676;2023-05-16T21:42:36;11.25;;;3.78;;
40541;SDS011;49288;52.194;5.676;2023-05-16T21:47:39;8.90;;;3.65;;
40541;SDS011;49288;52.194;5.676;2023-05-16T21:52:42;6.57;;;2.95;;
40541;SDS011;49288;52.194;5.676;2023-05-16T21:57:45;7.55;;;3.60;;
40541;SDS011;49288;52.194;5.676;2023-05-16T22:02:47;5.65;;;3.10;;
40541;SDS011;49288;52.194;5.676;2023-05-16T22:07:50;6.28;;;3.50;;
40541;SDS011;49288;52.194;5.676;2023-05-16T22:12:53;9.23;;;3.65;;
40541;SDS011;49288;52.194;5.676;2023-05-16T22:17:56;8.95;;;3.22;;
40541;SDS011;49288;52.194;5.676;2023-05-16T22:22:59;8.70;;;3.90;;
40541;SDS011;49288;52.194;5.676;2023-05-16T22:28:01;12.45;;;3.60;;
40541;SDS011;49288;52.194;5.676;2023-05-16T22:33:04;8.35;;;3.95;;
40541;SDS011;49288;52.194;5.676;2023-05-16T22:38:07;8.00;;;3.40;;
40541;SDS011;49288;52.194;5.676;2023-05-16T22:43:09;11.20;;;3.72;;
40541;SDS011;49288;52.194;5.676;2023-05-16T22:48:14;8.73;;;4.10;;
40541;SDS011;49288;52.194;5.676;2023-05-16T22:53:20;11.73;;;3.78;;
40541;SDS011;49288;52.194;5.676;2023-05-16T22:58:22;11.05;;;3.25;;
40541;SDS011;49288;52.194;5.676;2023-05-16T23:03:25;11.63;;;4.20;;
40541;SDS011;49288;52.194;5.676;2023-05-16T23:08:29;8.93;;;3.40;;
40541;SDS011;49288;52.194;5.676;2023-05-16T23:13:31;10.15;;;3.90;;
40541;SDS011;49288;52.194;5.676;2023-05-16T23:18:34;9.27;;;3.60;;
40541;SDS011;49288;52.194;5.676;2023-05-16T23:23:37;17.77;;;4.82;;
40541;SDS011;49288;52.194;5.676;2023-05-16T23:28:40;16.65;;;4.32;;
40541;SDS011;49288;52.194;5.676;2023-05-16T23:33:43;11.43;;;4.70;;
40541;SDS011;49288;52.194;5.676;2023-05-16T23:38:46;15.85;;;5.07;;
40541;SDS011;49288;52.194;5.676;2023-05-16T23:43:49;11.90;;;4.07;;
40541;SDS011;49288;52.194;5.676;2023-05-16T23:48:52;9.45;;;3.30;;
40541;SDS011;49288;52.194;5.676;2023-05-16T23:53:55;10.18;;;3.63;;
40541;SDS011;49288;52.194;5.676;2023-05-16T23:58:58;13.30;;;4.78;;
